Terminal Aerodrome Forecast
Issued by NWS Cleveland, OH

Home | Current Version | Previous Version | Graphics & Text | Print | Product List | Glossary On
Versions: 1 2 3 4 5 6 7 8 9 10 11 12 13 14 15 16
000
FTUS41 KCLE 230300 AAA
TAFYNG
TAF AMD
KYNG 230342Z 2304/2324 26008KT P6SM VCSH BKN035 OVC045
      TEMPO 2304/2308 2SM -SN BR OVC025
     FM231300 28012G20KT P6SM BKN025 OVC035
     FM231600 28015G25KT P6SM BKN035 OVC050=

USA.gov is the U.S. government's official web portal to all federal, state and local government web resources and services.